Terminal Aerodrome Forecast
Issued by NWS Cleveland, OH

Home | Current Version | Previous Version | Graphics & Text | Print | Product List | Glossary Off
Versions: 1 2 3 4 5 6 7 8 9 10 11 12 13 14 15 16 17 18 19

000
FTUS41 KCLE 240500
TAFYNG
TAF
KYNG 240540Z 2406/2506 29004KT P6SM BKN250
     FM241000 VRB04KT 4SM BR SCT010
      TEMPO 2410/2414 2SM BR BKN010
     FM241400 26006KT P6SM SCT250
     FM241900 26006KT P6SM SCT060
     FM242200 22004KT P6SM SKC=

USA.gov is the U.S. government's official web portal to all federal, state and local government web resources and services.